createdAt,value
2019-03-22T00:00:26.209Z,84.30
2019-03-22T00:02:55.370Z,82.47
2019-03-22T00:05:24.867Z,63.80
2019-03-22T00:07:54.062Z,79.07
2019-03-22T00:10:23.198Z,80.05
2019-03-22T00:12:52.376Z,81.65
2019-03-22T00:15:22.576Z,87.10
2019-03-22T00:17:51.771Z,86.92
2019-03-22T00:20:20.883Z,95.40
2019-03-22T00:22:50.368Z,69.75
2019-03-22T00:25:19.901Z,70.57
2019-03-22T00:27:49.033Z,105.63
2019-03-22T00:30:18.167Z,102.10
2019-03-22T00:32:47.306Z,76.87
2019-03-22T00:35:16.476Z,84.05
2019-03-22T00:37:45.903Z,81.80
2019-03-22T00:40:15.385Z,104.97
2019-03-22T00:42:45.344Z,119.13
2019-03-22T00:45:17.863Z,96.67
2019-03-22T00:47:46.971Z,104.78
2019-03-22T00:50:16.109Z,102.20
2019-03-22T00:52:45.238Z,102.35
2019-03-22T00:55:14.396Z,106.72
2019-03-22T00:57:43.611Z,101.10
2019-03-22T01:00:13.389Z,85.90
2019-03-22T01:02:42.573Z,90.65
2019-03-22T01:05:11.730Z,95.80
2019-03-22T01:07:40.974Z,84.00
2019-03-22T01:10:10.402Z,87.92
2019-03-22T01:12:39.568Z,91.57
2019-03-22T01:15:12.754Z,96.35
2019-03-22T01:17:41.976Z,100.78
2019-03-22T01:20:11.774Z,92.27
2019-03-22T01:22:40.949Z,76.00
2019-03-22T01:25:10.078Z,91.57
2019-03-22T01:27:40.942Z,73.60
2019-03-22T01:30:10.901Z,73.90
2019-03-22T01:32:40.053Z,70.75
2019-03-22T01:35:09.162Z,76.33
2019-03-22T01:37:38.354Z,110.92
2019-03-22T01:40:08.337Z,105.58
2019-03-22T01:42:37.812Z,114.95
2019-03-22T01:45:08.887Z,127.47
2019-03-22T01:47:38.482Z,105.55
2019-03-22T01:50:11.855Z,102.82
2019-03-22T01:52:42.351Z,83.27
2019-03-22T01:55:11.491Z,108.83
2019-03-22T01:57:51.902Z,119.85
2019-03-22T02:00:11.982Z,93.35
2019-03-22T02:02:41.136Z,95.07
2019-03-22T02:05:10.278Z,93.42
2019-03-22T02:07:39.454Z,88.67
2019-03-22T02:10:12.525Z,79.92
2019-03-22T02:12:42.018Z,82.22
2019-03-22T02:15:16.236Z,94.80
2019-03-22T02:17:45.778Z,97.55
2019-03-22T02:20:14.975Z,85.62
2019-03-22T02:22:44.298Z,94.20
2019-03-22T02:25:13.490Z,99.40
2019-03-22T02:27:44.634Z,82.97
2019-03-22T02:30:14.189Z,79.15
2019-03-22T02:32:43.322Z,82.20
2019-03-22T02:35:27.691Z,92.88
2019-03-22T02:37:43.352Z,90.32
2019-03-22T02:40:12.645Z,86.78
2019-03-22T02:42:42.106Z,78.33
2019-03-22T02:45:11.385Z,81.78
2019-03-22T02:47:40.542Z,76.95
2019-03-22T02:50:18.121Z,84.70
2019-03-22T02:52:41.562Z,77.53
2019-03-22T02:55:13.350Z,82.27
2019-03-22T02:57:42.526Z,83.62
2019-03-22T03:00:12.121Z,91.63
2019-03-22T03:02:41.256Z,119.30
2019-03-22T03:05:12.588Z,94.87
2019-03-22T03:07:44.940Z,89.95
2019-03-22T03:10:14.124Z,105.78
2019-03-22T03:12:43.609Z,100.10
2019-03-22T03:15:12.859Z,85.45
2019-03-22T03:17:41.967Z,96.00
2019-03-22T03:20:12.382Z,99.05
2019-03-22T03:22:41.568Z,92.75
2019-03-22T03:25:10.822Z,95.67
2019-03-22T03:27:40.377Z,83.58
2019-03-22T03:30:11.928Z,91.57
2019-03-22T03:32:41.851Z,84.30
2019-03-22T03:35:11.059Z,92.92
2019-03-22T03:37:40.172Z,89.10
2019-03-22T03:40:09.709Z,98.22
2019-03-22T03:42:39.444Z,71.70
2019-03-22T03:45:10.872Z,83.92
2019-03-22T03:47:40.375Z,79.70
2019-03-22T03:50:10.185Z,77.72
2019-03-22T03:52:39.721Z,78.67
2019-03-22T03:55:09.295Z,89.97
2019-03-22T03:57:38.472Z,126.53
2019-03-22T04:00:08.027Z,112.80
2019-03-22T04:02:37.408Z,108.35
2019-03-22T04:05:07.004Z,124.30
2019-03-22T04:07:36.143Z,116.67
2019-03-22T04:10:05.687Z,112.08
2019-03-22T04:12:35.147Z,134.80
2019-03-22T04:15:06.464Z,133.03
2019-03-22T04:17:35.603Z,137.65
2019-03-22T04:20:05.511Z,98.20
2019-03-22T04:22:36.307Z,91.20
2019-03-22T04:25:05.960Z,92.30
2019-03-22T04:27:35.111Z,91.22
2019-03-22T04:30:05.256Z,102.58
2019-03-22T04:32:37.168Z,132.80
2019-03-22T04:35:06.749Z,138.75
2019-03-22T04:37:40.626Z,127.55
2019-03-22T04:40:26.899Z,130.43
2019-03-22T04:42:55.958Z,149.50
2019-03-22T04:45:25.329Z,148.55
2019-03-22T04:47:57.064Z,163.20
2019-03-22T04:50:26.234Z,245.67
2019-03-22T04:52:55.368Z,346.57
2019-03-22T04:55:26.934Z,452.37
2019-03-22T04:57:56.089Z,571.40
2019-03-22T05:00:25.513Z,605.17
2019-03-22T05:02:55.360Z,511.45
2019-03-22T05:05:25.104Z,601.85
2019-03-22T05:07:54.344Z,425.57
2019-03-22T05:10:23.472Z,337.70
2019-03-22T05:12:56.651Z,397.52
2019-03-22T05:15:27.206Z,306.85
2019-03-22T05:17:56.291Z,335.63
2019-03-22T05:20:25.787Z,602.75
2019-03-22T05:22:54.968Z,710.70
2019-03-22T05:25:24.079Z,499.48
2019-03-22T05:27:53.509Z,483.85
2019-03-22T05:31:02.967Z,313.98
2019-03-22T05:33:34.265Z,631.80
2019-03-22T05:36:03.428Z,1040.10
2019-03-22T05:38:32.562Z,430.27
2019-03-22T05:41:01.734Z,445.55
2019-03-22T05:43:33.947Z,1193.20
2019-03-22T05:46:03.204Z,485.00
2019-03-22T05:48:32.367Z,376.27
2019-03-22T05:51:01.919Z,193.37
2019-03-22T05:53:31.073Z,320.93
2019-03-22T05:56:00.258Z,340.07
2019-03-22T05:58:29.366Z,310.85
2019-03-22T06:00:58.501Z,409.63
2019-03-22T06:03:27.651Z,317.68
2019-03-22T06:05:56.794Z,423.65
2019-03-22T06:08:25.936Z,240.30
2019-03-22T06:10:55.048Z,293.88
2019-03-22T06:13:27.707Z,284.92
2019-03-22T06:16:00.122Z,265.68
2019-03-22T06:18:32.109Z,385.22
2019-03-22T06:21:01.256Z,518.55
2019-03-22T06:23:30.477Z,380.45
2019-03-22T06:26:02.749Z,368.10
2019-03-22T06:28:31.828Z,247.30
2019-03-22T06:31:01.020Z,423.97
2019-03-22T06:33:30.148Z,615.45
2019-03-22T06:35:59.584Z,1161.90
2019-03-22T06:38:28.710Z,255.03
2019-03-22T06:40:58.210Z,424.48
2019-03-22T06:43:29.804Z,245.25
2019-03-22T06:45:58.975Z,969.20
2019-03-22T06:48:28.170Z,569.47
2019-03-22T06:50:57.328Z,306.98
2019-03-22T06:53:29.663Z,204.53
2019-03-22T06:55:58.824Z,889.85
2019-03-22T06:58:28.260Z,318.42
2019-03-22T07:00:58.289Z,252.65
2019-03-22T07:03:27.431Z,441.23
2019-03-22T07:05:57.982Z,451.63
2019-03-22T07:08:27.078Z,684.58
2019-03-22T07:10:56.235Z,252.95
2019-03-22T07:13:32.225Z,204.93
2019-03-22T07:16:01.342Z,473.10
2019-03-22T07:18:30.817Z,452.28
2019-03-22T07:20:59.940Z,831.45
2019-03-22T07:23:31.831Z,379.00
2019-03-22T07:26:00.960Z,116.57
2019-03-22T07:28:30.495Z,121.30
2019-03-22T07:30:59.618Z,117.42
2019-03-22T07:33:28.729Z,124.67
2019-03-22T07:35:58.146Z,150.82
2019-03-22T07:38:27.254Z,159.18
2019-03-22T07:40:56.720Z,145.92
2019-03-22T07:43:25.844Z,579.85
2019-03-22T07:45:54.984Z,120.85
2019-03-22T07:48:24.837Z,116.90
2019-03-22T07:50:54.195Z,127.45
2019-03-22T07:53:23.305Z,196.28
2019-03-22T07:55:52.410Z,137.60
2019-03-22T07:58:22.322Z,158.10
2019-03-22T08:00:51.425Z,110.55
2019-03-22T08:03:20.558Z,115.32
2019-03-22T08:05:51.708Z,176.37
2019-03-22T08:08:20.900Z,138.62
2019-03-22T08:10:51.286Z,186.35
2019-03-22T08:13:21.396Z,206.30
2019-03-22T08:15:50.543Z,156.00
2019-03-22T08:18:20.054Z,141.85
2019-03-22T08:20:49.113Z,191.57
2019-03-22T08:23:19.997Z,186.95
2019-03-22T08:25:49.747Z,168.35
2019-03-22T08:28:18.877Z,124.05
2019-03-22T08:30:48.028Z,374.85
2019-03-22T08:33:17.453Z,192.72
2019-03-22T08:35:49.365Z,130.43
2019-03-22T08:38:18.464Z,143.43
2019-03-22T08:40:47.552Z,118.17
2019-03-22T08:43:19.284Z,109.78
2019-03-22T08:45:48.415Z,126.78
2019-03-22T08:48:17.583Z,89.55
2019-03-22T08:50:47.078Z,72.65
2019-03-22T08:53:16.708Z,85.72
2019-03-22T08:55:46.163Z,69.80
2019-03-22T08:58:18.494Z,74.37
2019-03-22T09:00:57.417Z,70.28
2019-03-22T09:03:18.451Z,95.38
2019-03-22T09:05:47.498Z,74.07
2019-03-22T09:08:17.446Z,80.47
2019-03-22T09:10:46.553Z,68.45
2019-03-22T09:13:15.681Z,79.85
2019-03-22T09:15:44.782Z,66.33
2019-03-22T09:18:15.615Z,67.95
2019-03-22T09:20:45.002Z,63.23
2019-03-22T09:23:14.850Z,61.23
2019-03-22T09:25:43.927Z,68.17
2019-03-22T09:28:13.347Z,70.22
2019-03-22T09:30:42.587Z,74.70
2019-03-22T09:33:13.370Z,66.17
2019-03-22T09:35:42.994Z,65.12
2019-03-22T09:38:15.215Z,75.50
2019-03-22T09:40:44.346Z,67.30
2019-03-22T09:43:13.473Z,62.73
2019-03-22T09:45:42.578Z,62.70
2019-03-22T09:48:12.446Z,64.25
2019-03-22T09:50:45.326Z,62.73
2019-03-22T09:53:14.450Z,60.67
2019-03-22T09:55:43.571Z,57.17
2019-03-22T09:58:12.730Z,59.00
2019-03-22T10:00:42.322Z,56.73
2019-03-22T10:03:11.453Z,56.10
2019-03-22T10:05:41.153Z,60.88
2019-03-22T10:08:10.290Z,53.10
2019-03-22T10:10:41.501Z,57.65
2019-03-22T10:13:10.651Z,66.72
2019-03-22T10:15:39.719Z,69.85
2019-03-22T10:18:09.182Z,57.90
2019-03-22T10:20:39.109Z,57.10
2019-03-22T10:23:08.235Z,60.90
2019-03-22T10:25:40.613Z,58.40
2019-03-22T10:28:09.800Z,59.27
2019-03-22T10:30:38.903Z,53.63
2019-03-22T10:33:08.090Z,55.20
2019-03-22T10:35:37.514Z,58.42
2019-03-22T10:38:15.995Z,57.75
2019-03-22T10:40:38.433Z,62.08
2019-03-22T10:43:07.817Z,57.65
2019-03-22T10:45:37.189Z,66.57
2019-03-22T10:48:09.857Z,57.35
2019-03-22T10:50:40.359Z,52.43
2019-03-22T10:53:09.501Z,45.83
2019-03-22T10:55:39.248Z,48.33
2019-03-22T10:58:20.171Z,47.88
2019-03-22T11:00:40.098Z,44.45
2019-03-22T11:03:09.614Z,42.33
2019-03-22T11:05:38.784Z,42.55
2019-03-22T11:08:08.584Z,44.42
2019-03-22T11:10:38.026Z,35.83
2019-03-22T11:13:07.441Z,36.80
2019-03-22T11:15:36.518Z,39.88
2019-03-22T11:18:05.826Z,37.53
2019-03-22T11:20:37.476Z,35.92
2019-03-22T11:23:07.002Z,40.50
2019-03-22T11:25:36.105Z,38.15
2019-03-22T11:28:05.497Z,35.70
2019-03-22T11:30:34.902Z,36.53
2019-03-22T11:33:07.832Z,31.50
2019-03-22T11:35:37.358Z,31.47
2019-03-22T11:38:06.782Z,29.45
2019-03-22T11:40:39.264Z,27.02
2019-03-22T11:43:09.114Z,28.00
2019-03-22T11:45:38.352Z,30.92
2019-03-22T11:48:07.772Z,27.77
2019-03-22T11:50:40.182Z,30.08
2019-03-22T11:53:09.650Z,30.72
2019-03-22T11:55:38.756Z,25.77
2019-03-22T11:58:08.135Z,25.17
2019-03-22T12:00:37.289Z,30.85
2019-03-22T12:03:06.387Z,26.57
2019-03-22T12:05:40.281Z,24.07
2019-03-22T12:08:06.684Z,28.47
2019-03-22T12:10:35.791Z,26.07
2019-03-22T12:13:04.901Z,28.95
2019-03-22T12:15:34.058Z,30.72
2019-03-22T12:18:03.155Z,27.50
2019-03-22T12:20:32.365Z,28.07
2019-03-22T12:23:01.916Z,27.25
2019-03-22T12:25:31.064Z,22.20
2019-03-22T12:28:00.185Z,22.70
2019-03-22T12:30:29.368Z,23.73
2019-03-22T12:33:10.624Z,23.70
2019-03-22T12:35:39.804Z,25.20
2019-03-22T12:38:08.920Z,21.68
2019-03-22T12:40:38.117Z,25.40
2019-03-22T12:43:07.675Z,22.80
2019-03-22T12:45:37.098Z,22.98
2019-03-22T12:48:06.594Z,24.52
2019-03-22T12:50:36.519Z,23.52
2019-03-22T12:53:05.740Z,25.48
2019-03-22T12:55:35.214Z,23.02
2019-03-22T12:58:07.694Z,25.10
2019-03-22T13:00:37.936Z,22.30
2019-03-22T13:03:07.726Z,23.40
2019-03-22T13:05:36.907Z,22.85
2019-03-22T13:08:06.377Z,22.48
2019-03-22T13:10:35.524Z,28.67
2019-03-22T13:13:05.761Z,25.43
2019-03-22T13:15:34.868Z,24.52
2019-03-22T13:18:06.302Z,24.60
2019-03-22T13:20:39.374Z,24.20
2019-03-22T13:23:09.220Z,21.42
2019-03-22T13:25:41.906Z,21.45
2019-03-22T13:28:11.569Z,19.87
2019-03-22T13:30:41.042Z,20.20
2019-03-22T13:33:10.481Z,18.60
2019-03-22T13:35:46.038Z,20.00
2019-03-22T13:38:16.470Z,22.48
2019-03-22T13:40:45.650Z,23.40
2019-03-22T13:43:17.044Z,24.72
2019-03-22T13:45:46.291Z,21.62
2019-03-22T13:48:15.432Z,20.97
2019-03-22T13:50:44.626Z,20.52
2019-03-22T13:53:13.767Z,21.62
2019-03-22T13:55:42.913Z,25.62
2019-03-22T13:58:22.868Z,21.93
2019-03-22T14:00:52.245Z,20.00
2019-03-22T14:03:23.405Z,21.90
2019-03-22T14:05:52.544Z,19.42
2019-03-22T14:08:26.960Z,17.65
2019-03-22T14:10:56.292Z,22.35
2019-03-22T14:13:25.411Z,20.45
2019-03-22T14:15:54.587Z,21.27
2019-03-22T14:18:24.010Z,17.62
2019-03-22T14:20:53.128Z,25.48
2019-03-22T14:23:22.220Z,20.57
2019-03-22T14:25:53.056Z,19.37
2019-03-22T14:28:23.261Z,23.92
2019-03-22T14:30:52.528Z,22.70
2019-03-22T14:33:21.897Z,20.65
2019-03-22T14:35:51.328Z,21.17
2019-03-22T14:38:20.525Z,22.80
2019-03-22T14:40:53.142Z,20.25
2019-03-22T14:43:22.295Z,22.52
2019-03-22T14:45:51.925Z,18.42
2019-03-22T14:48:21.674Z,21.90
2019-03-22T14:50:51.206Z,20.60
2019-03-22T14:53:20.355Z,23.27
2019-03-22T14:55:49.919Z,25.48
2019-03-22T14:58:26.716Z,21.00
2019-03-22T15:00:55.851Z,19.30
2019-03-22T15:03:27.415Z,23.55
2019-03-22T15:05:57.752Z,27.50
2019-03-22T15:08:27.244Z,22.13
2019-03-22T15:10:59.618Z,22.17
2019-03-22T15:13:44.696Z,22.62
2019-03-22T15:16:34.389Z,19.10
2019-03-22T15:19:21.630Z,20.77
2019-03-22T15:22:17.776Z,19.27
2019-03-22T15:24:59.047Z,22.75
2019-03-22T15:28:02.726Z,23.42
2019-03-22T15:31:02.508Z,20.80
2019-03-22T15:33:54.155Z,24.05
2019-03-22T15:36:38.211Z,22.22
2019-03-22T15:41:51.545Z,21.87
2019-03-22T15:44:20.760Z,19.45
2019-03-22T15:46:50.243Z,19.95
2019-03-22T15:49:19.354Z,25.77
2019-03-22T15:51:48.921Z,24.27
2019-03-22T15:54:18.148Z,24.15
2019-03-22T15:56:50.373Z,19.48
2019-03-22T15:59:19.468Z,20.57
2019-03-22T16:01:48.806Z,29.42
2019-03-22T16:04:18.777Z,20.68
2019-03-22T16:06:49.711Z,26.42
2019-03-22T16:09:19.159Z,23.77
2019-03-22T16:11:49.001Z,25.00
2019-03-22T16:14:18.129Z,24.02
2019-03-22T16:16:47.556Z,20.90
2019-03-22T16:19:16.996Z,21.20
2019-03-22T16:21:46.133Z,19.85
2019-03-22T16:24:15.719Z,26.93
2019-03-22T16:26:44.834Z,27.80
2019-03-22T16:29:13.971Z,19.92
2019-03-22T16:31:45.354Z,21.95
2019-03-22T16:34:17.590Z,22.00
2019-03-22T16:36:49.688Z,27.65
2019-03-22T16:39:22.232Z,18.20
2019-03-22T16:41:55.772Z,19.95
2019-03-22T16:44:25.280Z,15.93
2019-03-22T16:46:54.393Z,20.70
2019-03-22T16:49:23.479Z,16.30
2019-03-22T16:51:52.984Z,16.95
2019-03-22T16:54:22.133Z,15.43
2019-03-22T16:56:51.270Z,19.98
2019-03-22T16:59:21.751Z,71.75
2019-03-22T17:01:50.836Z,17.65
2019-03-22T17:04:19.990Z,14.45
2019-03-22T17:06:49.434Z,17.50
2019-03-22T17:09:18.510Z,20.45
2019-03-22T17:11:47.640Z,22.95
2019-03-22T17:14:21.747Z,18.32
2019-03-22T17:16:53.808Z,16.40
2019-03-22T17:19:22.900Z,21.20
2019-03-22T17:21:52.045Z,17.87
2019-03-22T17:24:21.277Z,21.33
2019-03-22T17:26:50.429Z,18.45
2019-03-22T17:29:19.741Z,22.00
2019-03-22T17:31:48.991Z,16.87
2019-03-22T17:34:18.912Z,19.77
2019-03-22T17:36:48.054Z,22.80
2019-03-22T17:39:17.455Z,18.62
2019-03-22T17:41:46.703Z,19.07
2019-03-22T17:44:16.197Z,22.10
2019-03-22T17:46:45.374Z,22.25
2019-03-22T17:49:14.680Z,28.17
2019-03-22T17:51:43.775Z,20.97
2019-03-22T17:54:12.972Z,24.12
2019-03-22T17:56:42.168Z,22.65
2019-03-22T17:59:11.406Z,26.07
2019-03-22T18:01:41.870Z,25.37
2019-03-22T18:04:11.137Z,31.00
2019-03-22T18:06:40.387Z,38.92
2019-03-22T18:09:10.271Z,30.80
2019-03-22T18:11:39.406Z,29.60
2019-03-22T18:14:08.574Z,28.95
2019-03-22T18:16:38.570Z,31.15
2019-03-22T18:19:09.453Z,35.35
2019-03-22T18:21:38.721Z,42.62
2019-03-22T18:24:20.256Z,45.95
2019-03-22T18:26:49.365Z,49.90
2019-03-22T18:29:18.576Z,66.90
2019-03-22T18:31:51.138Z,64.37
2019-03-22T18:34:33.779Z,82.20
2019-03-22T18:36:54.629Z,69.72
2019-03-22T18:39:24.252Z,56.53
2019-03-22T18:41:53.535Z,35.08
2019-03-22T18:44:26.150Z,34.45
2019-03-22T18:46:57.222Z,39.20
2019-03-22T18:49:27.906Z,32.98
2019-03-22T18:51:57.732Z,29.72
2019-03-22T18:54:26.912Z,36.17
2019-03-22T18:56:56.419Z,37.15
2019-03-22T18:59:25.631Z,28.90
2019-03-22T19:01:54.891Z,30.52
2019-03-22T19:04:24.444Z,37.10
2019-03-22T19:06:53.617Z,37.28
2019-03-22T19:09:22.838Z,31.68
2019-03-22T19:11:52.240Z,32.90
2019-03-22T19:14:21.741Z,35.90
2019-03-22T19:16:54.626Z,43.15
2019-03-22T19:19:25.043Z,34.77
2019-03-22T19:21:54.291Z,34.40
2019-03-22T19:24:23.466Z,35.90
2019-03-22T19:26:52.645Z,32.75
2019-03-22T19:29:21.789Z,39.30
2019-03-22T19:31:51.156Z,43.58
2019-03-22T19:34:20.327Z,41.90
2019-03-22T19:36:49.442Z,31.82
2019-03-22T19:39:18.579Z,40.83
2019-03-22T19:41:47.716Z,37.23
2019-03-22T19:44:18.098Z,40.83
2019-03-22T19:46:47.580Z,38.98
2019-03-22T19:49:16.766Z,43.25
2019-03-22T19:51:46.637Z,37.90
2019-03-22T19:54:16.099Z,35.52
2019-03-22T19:56:48.525Z,44.18
2019-03-22T19:59:17.641Z,36.48
2019-03-22T20:01:47.481Z,40.28
2019-03-22T20:04:16.609Z,39.58
2019-03-22T20:06:46.497Z,36.42
2019-03-22T20:09:17.711Z,36.17
2019-03-22T20:11:46.854Z,38.75
2019-03-22T20:14:15.979Z,36.58
2019-03-22T20:16:46.499Z,40.73
2019-03-22T20:19:15.663Z,43.10
2019-03-22T20:21:48.204Z,41.58
2019-03-22T20:24:18.280Z,38.92
2019-03-22T20:26:50.522Z,36.00
2019-03-22T20:29:19.620Z,37.90
2019-03-22T20:31:48.831Z,36.83
2019-03-22T20:34:18.280Z,32.98
2019-03-22T20:36:47.377Z,40.55
2019-03-22T20:39:16.490Z,48.45
2019-03-22T20:41:53.144Z,55.38
2019-03-22T20:44:22.435Z,47.05
2019-03-22T20:46:51.572Z,48.85
2019-03-22T20:49:22.989Z,43.70
2019-03-22T20:52:00.445Z,52.00
2019-03-22T20:54:29.720Z,56.75
2019-03-22T20:57:01.724Z,49.63
2019-03-22T20:59:31.057Z,45.88
2019-03-22T21:02:00.292Z,47.95
2019-03-22T21:04:32.606Z,42.23
2019-03-22T21:07:01.878Z,45.38
2019-03-22T21:09:31.646Z,40.98
2019-03-22T21:12:03.963Z,48.55
2019-03-22T21:14:33.689Z,39.73
2019-03-22T21:17:05.898Z,37.53
2019-03-22T21:19:35.106Z,34.27
2019-03-22T21:22:04.537Z,36.35
2019-03-22T21:24:34.458Z,34.08
2019-03-22T21:27:03.641Z,35.45
2019-03-22T21:29:43.496Z,34.92
2019-03-22T21:32:04.616Z,33.92
2019-03-22T21:34:34.085Z,31.75
2019-03-22T21:37:03.249Z,34.60
2019-03-22T21:39:32.435Z,32.80
2019-03-22T21:42:01.606Z,33.58
2019-03-22T21:44:31.018Z,37.05
2019-03-22T21:47:00.708Z,34.13
2019-03-22T21:49:30.205Z,39.05
2019-03-22T21:51:59.824Z,35.03
2019-03-22T21:54:28.994Z,32.17
2019-03-22T21:57:01.583Z,37.70
2019-03-22T21:59:30.729Z,31.60
2019-03-22T22:01:59.903Z,32.23
2019-03-22T22:04:29.051Z,33.02
2019-03-22T22:06:58.861Z,39.35
2019-03-22T22:09:28.007Z,37.53
2019-03-22T22:11:57.871Z,47.05
2019-03-22T22:14:27.761Z,41.53
2019-03-22T22:16:57.599Z,44.13
2019-03-22T22:19:27.079Z,41.37
2019-03-22T22:21:56.598Z,35.65
2019-03-22T22:24:33.373Z,47.48
2019-03-22T22:27:13.486Z,43.55
2019-03-22T22:29:34.914Z,39.83
2019-03-22T22:32:04.418Z,41.20
2019-03-22T22:34:33.529Z,41.33
2019-03-22T22:37:05.764Z,42.43
2019-03-22T22:39:35.291Z,50.30
2019-03-22T22:42:05.208Z,55.60
2019-03-22T22:44:34.330Z,47.83
2019-03-22T22:47:03.468Z,44.13
2019-03-22T22:49:32.621Z,49.73
2019-03-22T22:52:01.798Z,45.03
2019-03-22T22:54:30.974Z,50.23
2019-03-22T22:57:03.888Z,48.80
2019-03-22T22:59:36.066Z,48.45
2019-03-22T23:02:05.316Z,42.98
2019-03-22T23:04:37.021Z,47.62
2019-03-22T23:07:06.208Z,46.92
2019-03-22T23:09:37.229Z,44.20
2019-03-22T23:12:07.077Z,46.40
2019-03-22T23:14:38.130Z,45.60
2019-03-22T23:17:07.346Z,43.13
2019-03-22T23:19:37.102Z,45.65
2019-03-22T23:22:06.220Z,51.15
2019-03-22T23:24:35.357Z,42.40
2019-03-22T23:27:04.501Z,48.40
2019-03-22T23:29:38.254Z,43.28
2019-03-22T23:34:35.582Z,44.23
2019-03-22T23:37:07.022Z,48.95
2019-03-22T23:39:35.534Z,48.60
2019-03-22T23:42:04.781Z,50.25
2019-03-22T23:44:34.126Z,46.28
2019-03-22T23:47:08.950Z,48.30
2019-03-22T23:49:38.054Z,44.10
2019-03-22T23:52:07.186Z,41.58
2019-03-22T23:54:36.325Z,43.98
2019-03-22T23:57:05.770Z,44.67
2019-03-22T23:59:34.889Z,39.58
